sensor_id;sensor_type;location;lat;lon;timestamp;P1;durP1;ratioP1;P2;durP2;ratioP2
71211;SDS011;58957;37.742;-0.742;2023-04-25T00:00:05;12.75;;;3.70;;
71211;SDS011;58957;37.742;-0.742;2023-04-25T00:02:34;11.73;;;3.95;;
71211;SDS011;58957;37.742;-0.742;2023-04-25T00:05:01;15.07;;;4.45;;
71211;SDS011;58957;37.742;-0.742;2023-04-25T00:07:30;14.05;;;4.55;;
71211;SDS011;58957;37.742;-0.742;2023-04-25T00:09:59;12.18;;;4.57;;
71211;SDS011;58957;37.742;-0.742;2023-04-25T00:12:26;13.93;;;4.68;;
71211;SDS011;58957;37.742;-0.742;2023-04-25T00:14:54;18.23;;;5.25;;
71211;SDS011;58957;37.742;-0.742;2023-04-25T00:17:22;12.63;;;5.65;;
71211;SDS011;58957;37.742;-0.742;2023-04-25T00:19:49;18.52;;;8.00;;
71211;SDS011;58957;37.742;-0.742;2023-04-25T00:22:17;19.02;;;8.82;;
71211;SDS011;58957;37.742;-0.742;2023-04-25T00:24:44;23.17;;;9.50;;
71211;SDS011;58957;37.742;-0.742;2023-04-25T00:27:13;17.38;;;9.90;;
71211;SDS011;58957;37.742;-0.742;2023-04-25T00:29:40;24.20;;;11.77;;
71211;SDS011;58957;37.742;-0.742;2023-04-25T00:32:08;26.20;;;11.73;;
71211;SDS011;58957;37.742;-0.742;2023-04-25T00:34:35;23.00;;;11.15;;
71211;SDS011;58957;37.742;-0.742;2023-04-25T00:37:02;25.05;;;13.13;;
71211;SDS011;58957;37.742;-0.742;2023-04-25T00:39:29;24.13;;;13.35;;
71211;SDS011;58957;37.742;-0.742;2023-04-25T00:41:59;24.35;;;11.95;;
71211;SDS011;58957;37.742;-0.742;2023-04-25T00:44:29;33.85;;;13.23;;
71211;SDS011;58957;37.742;-0.742;2023-04-25T00:46:58;27.65;;;13.27;;
71211;SDS011;58957;37.742;-0.742;2023-04-25T00:49:28;24.15;;;14.02;;
71211;SDS011;58957;37.742;-0.742;2023-04-25T00:51:55;26.75;;;14.32;;
71211;SDS011;58957;37.742;-0.742;2023-04-25T00:54:22;29.25;;;15.30;;
71211;SDS011;58957;37.742;-0.742;2023-04-25T00:56:50;24.95;;;14.70;;
71211;SDS011;58957;37.742;-0.742;2023-04-25T00:59:18;26.55;;;14.18;;
71211;SDS011;58957;37.742;-0.742;2023-04-25T01:01:47;25.20;;;14.15;;
71211;SDS011;58957;37.742;-0.742;2023-04-25T01:04:14;27.13;;;14.13;;
71211;SDS011;58957;37.742;-0.742;2023-04-25T01:06:41;28.17;;;14.32;;
71211;SDS011;58957;37.742;-0.742;2023-04-25T01:09:09;35.10;;;16.00;;
71211;SDS011;58957;37.742;-0.742;2023-04-25T01:11:37;32.22;;;14.85;;
71211;SDS011;58957;37.742;-0.742;2023-04-25T01:14:05;29.83;;;14.80;;
71211;SDS011;58957;37.742;-0.742;2023-04-25T01:16:32;27.85;;;15.27;;
71211;SDS011;58957;37.742;-0.742;2023-04-25T01:19:02;32.15;;;15.68;;
71211;SDS011;58957;37.742;-0.742;2023-04-25T01:21:37;29.02;;;14.80;;
71211;SDS011;58957;37.742;-0.742;2023-04-25T01:24:05;32.13;;;16.20;;
71211;SDS011;58957;37.742;-0.742;2023-04-25T01:26:33;29.85;;;14.95;;
71211;SDS011;58957;37.742;-0.742;2023-04-25T01:29:03;28.90;;;14.63;;
71211;SDS011;58957;37.742;-0.742;2023-04-25T01:31:30;33.30;;;17.00;;
71211;SDS011;58957;37.742;-0.742;2023-04-25T01:34:00;30.38;;;14.95;;
71211;SDS011;58957;37.742;-0.742;2023-04-25T01:36:27;26.67;;;15.95;;
71211;SDS011;58957;37.742;-0.742;2023-04-25T01:38:57;28.67;;;14.93;;
71211;SDS011;58957;37.742;-0.742;2023-04-25T01:41:24;28.67;;;15.18;;
71211;SDS011;58957;37.742;-0.742;2023-04-25T01:43:51;27.83;;;14.10;;
71211;SDS011;58957;37.742;-0.742;2023-04-25T01:46:19;30.25;;;14.27;;
71211;SDS011;58957;37.742;-0.742;2023-04-25T01:48:46;29.38;;;15.07;;
71211;SDS011;58957;37.742;-0.742;2023-04-25T01:51:13;27.85;;;13.52;;
71211;SDS011;58957;37.742;-0.742;2023-04-25T01:53:41;29.75;;;13.80;;
71211;SDS011;58957;37.742;-0.742;2023-04-25T01:56:11;25.40;;;14.98;;
71211;SDS011;58957;37.742;-0.742;2023-04-25T01:58:38;26.98;;;14.20;;
71211;SDS011;58957;37.742;-0.742;2023-04-25T02:01:05;32.90;;;14.65;;
71211;SDS011;58957;37.742;-0.742;2023-04-25T02:03:34;26.10;;;13.65;;
71211;SDS011;58957;37.742;-0.742;2023-04-25T02:06:01;28.05;;;13.23;;
71211;SDS011;58957;37.742;-0.742;2023-04-25T02:08:28;28.08;;;13.82;;
71211;SDS011;58957;37.742;-0.742;2023-04-25T02:10:56;25.17;;;13.75;;
71211;SDS011;58957;37.742;-0.742;2023-04-25T02:13:25;31.95;;;14.82;;
71211;SDS011;58957;37.742;-0.742;2023-04-25T02:15:52;29.30;;;15.57;;
71211;SDS011;58957;37.742;-0.742;2023-04-25T02:18:19;40.03;;;17.83;;
71211;SDS011;58957;37.742;-0.742;2023-04-25T02:20:46;32.80;;;16.98;;
71211;SDS011;58957;37.742;-0.742;2023-04-25T02:23:13;34.17;;;16.13;;
71211;SDS011;58957;37.742;-0.742;2023-04-25T02:25:41;37.22;;;17.65;;
71211;SDS011;58957;37.742;-0.742;2023-04-25T02:28:08;34.90;;;17.33;;
71211;SDS011;58957;37.742;-0.742;2023-04-25T02:30:37;36.97;;;18.80;;
71211;SDS011;58957;37.742;-0.742;2023-04-25T02:33:04;38.42;;;19.10;;
71211;SDS011;58957;37.742;-0.742;2023-04-25T02:35:31;34.47;;;17.38;;
71211;SDS011;58957;37.742;-0.742;2023-04-25T02:37:59;28.55;;;16.58;;
71211;SDS011;58957;37.742;-0.742;2023-04-25T02:40:26;32.10;;;15.25;;
71211;SDS011;58957;37.742;-0.742;2023-04-25T02:42:53;29.05;;;17.10;;
71211;SDS011;58957;37.742;-0.742;2023-04-25T02:45:20;33.47;;;17.17;;
71211;SDS011;58957;37.742;-0.742;2023-04-25T02:47:50;33.55;;;19.20;;
71211;SDS011;58957;37.742;-0.742;2023-04-25T02:50:17;32.85;;;17.77;;
71211;SDS011;58957;37.742;-0.742;2023-04-25T02:52:45;33.22;;;18.27;;
71211;SDS011;58957;37.742;-0.742;2023-04-25T02:55:12;31.85;;;17.50;;
71211;SDS011;58957;37.742;-0.742;2023-04-25T02:57:40;39.17;;;17.88;;
71211;SDS011;58957;37.742;-0.742;2023-04-25T03:00:08;32.83;;;17.42;;
71211;SDS011;58957;37.742;-0.742;2023-04-25T03:02:36;32.15;;;16.27;;
71211;SDS011;58957;37.742;-0.742;2023-04-25T03:05:05;29.45;;;17.20;;
71211;SDS011;58957;37.742;-0.742;2023-04-25T03:07:33;25.90;;;17.40;;
71211;SDS011;58957;37.742;-0.742;2023-04-25T03:10:00;34.55;;;16.50;;
71211;SDS011;58957;37.742;-0.742;2023-04-25T03:12:27;33.22;;;16.88;;
71211;SDS011;58957;37.742;-0.742;2023-04-25T03:14:54;33.35;;;17.13;;
71211;SDS011;58957;37.742;-0.742;2023-04-25T03:17:21;31.67;;;18.33;;
71211;SDS011;58957;37.742;-0.742;2023-04-25T03:19:48;34.13;;;17.48;;
71211;SDS011;58957;37.742;-0.742;2023-04-25T03:22:17;30.67;;;17.48;;
71211;SDS011;58957;37.742;-0.742;2023-04-25T03:24:44;37.03;;;17.42;;
71211;SDS011;58957;37.742;-0.742;2023-04-25T03:27:12;28.08;;;18.00;;
71211;SDS011;58957;37.742;-0.742;2023-04-25T03:29:39;36.55;;;17.75;;
71211;SDS011;58957;37.742;-0.742;2023-04-25T03:32:07;33.33;;;17.77;;
71211;SDS011;58957;37.742;-0.742;2023-04-25T03:34:34;30.33;;;16.63;;
71211;SDS011;58957;37.742;-0.742;2023-04-25T03:37:01;32.63;;;16.30;;
71211;SDS011;58957;37.742;-0.742;2023-04-25T03:39:30;32.65;;;16.85;;
71211;SDS011;58957;37.742;-0.742;2023-04-25T03:41:57;31.17;;;17.00;;
71211;SDS011;58957;37.742;-0.742;2023-04-25T03:44:24;29.95;;;17.05;;
71211;SDS011;58957;37.742;-0.742;2023-04-25T03:46:51;29.50;;;17.73;;
71211;SDS011;58957;37.742;-0.742;2023-04-25T03:49:18;28.20;;;16.58;;
71211;SDS011;58957;37.742;-0.742;2023-04-25T03:51:46;33.45;;;16.75;;
71211;SDS011;58957;37.742;-0.742;2023-04-25T03:54:14;31.85;;;16.50;;
71211;SDS011;58957;37.742;-0.742;2023-04-25T03:56:43;25.35;;;15.20;;
71211;SDS011;58957;37.742;-0.742;2023-04-25T03:59:10;25.92;;;15.50;;
71211;SDS011;58957;37.742;-0.742;2023-04-25T04:01:37;28.95;;;15.65;;
71211;SDS011;58957;37.742;-0.742;2023-04-25T04:04:04;28.80;;;15.68;;
71211;SDS011;58957;37.742;-0.742;2023-04-25T04:06:31;28.17;;;15.73;;
71211;SDS011;58957;37.742;-0.742;2023-04-25T04:08:59;25.90;;;14.50;;
71211;SDS011;58957;37.742;-0.742;2023-04-25T04:11:26;25.35;;;13.38;;
71211;SDS011;58957;37.742;-0.742;2023-04-25T04:13:54;24.38;;;13.10;;
71211;SDS011;58957;37.742;-0.742;2023-04-25T04:16:22;21.70;;;12.32;;
71211;SDS011;58957;37.742;-0.742;2023-04-25T04:18:49;26.55;;;13.73;;
71211;SDS011;58957;37.742;-0.742;2023-04-25T04:21:16;21.70;;;12.38;;
71211;SDS011;58957;37.742;-0.742;2023-04-25T04:23:43;22.45;;;12.13;;
71211;SDS011;58957;37.742;-0.742;2023-04-25T04:26:11;21.85;;;12.82;;
71211;SDS011;58957;37.742;-0.742;2023-04-25T04:28:40;21.75;;;12.38;;
71211;SDS011;58957;37.742;-0.742;2023-04-25T04:31:09;22.13;;;12.57;;
71211;SDS011;58957;37.742;-0.742;2023-04-25T04:33:36;19.52;;;12.20;;
71211;SDS011;58957;37.742;-0.742;2023-04-25T04:36:04;29.08;;;11.85;;
71211;SDS011;58957;37.742;-0.742;2023-04-25T04:38:33;26.30;;;13.00;;
71211;SDS011;58957;37.742;-0.742;2023-04-25T04:41:01;23.35;;;11.73;;
71211;SDS011;58957;37.742;-0.742;2023-04-25T04:43:29;21.25;;;11.63;;
71211;SDS011;58957;37.742;-0.742;2023-04-25T04:45:57;17.80;;;10.43;;
71211;SDS011;58957;37.742;-0.742;2023-04-25T04:48:28;25.15;;;10.32;;
71211;SDS011;58957;37.742;-0.742;2023-04-25T04:50:57;21.90;;;10.80;;
71211;SDS011;58957;37.742;-0.742;2023-04-25T04:53:25;15.60;;;8.98;;
71211;SDS011;58957;37.742;-0.742;2023-04-25T04:55:52;19.90;;;8.93;;
71211;SDS011;58957;37.742;-0.742;2023-04-25T04:58:20;11.63;;;8.07;;
71211;SDS011;58957;37.742;-0.742;2023-04-25T05:00:48;14.73;;;8.65;;
71211;SDS011;58957;37.742;-0.742;2023-04-25T05:03:15;16.60;;;8.30;;
71211;SDS011;58957;37.742;-0.742;2023-04-25T05:05:44;16.08;;;7.47;;
71211;SDS011;58957;37.742;-0.742;2023-04-25T05:08:11;16.83;;;8.85;;
71211;SDS011;58957;37.742;-0.742;2023-04-25T05:10:38;15.73;;;8.32;;
71211;SDS011;58957;37.742;-0.742;2023-04-25T05:13:07;20.88;;;9.18;;
71211;SDS011;58957;37.742;-0.742;2023-04-25T05:15:34;17.50;;;9.15;;
71211;SDS011;58957;37.742;-0.742;2023-04-25T05:18:01;19.55;;;9.35;;
71211;SDS011;58957;37.742;-0.742;2023-04-25T05:20:29;18.20;;;9.63;;
71211;SDS011;58957;37.742;-0.742;2023-04-25T05:22:57;19.13;;;9.88;;
71211;SDS011;58957;37.742;-0.742;2023-04-25T05:25:25;18.83;;;8.90;;
71211;SDS011;58957;37.742;-0.742;2023-04-25T05:27:52;18.27;;;9.18;;
71211;SDS011;58957;37.742;-0.742;2023-04-25T05:30:19;16.08;;;8.90;;
71211;SDS011;58957;37.742;-0.742;2023-04-25T05:32:47;18.13;;;9.13;;
71211;SDS011;58957;37.742;-0.742;2023-04-25T05:35:14;20.02;;;8.85;;
71211;SDS011;58957;37.742;-0.742;2023-04-25T05:37:41;18.13;;;8.30;;
71211;SDS011;58957;37.742;-0.742;2023-04-25T05:40:10;17.77;;;8.23;;
71211;SDS011;58957;37.742;-0.742;2023-04-25T05:42:38;15.07;;;7.55;;
71211;SDS011;58957;37.742;-0.742;2023-04-25T05:45:05;19.33;;;7.38;;
71211;SDS011;58957;37.742;-0.742;2023-04-25T05:47:33;15.70;;;7.38;;
71211;SDS011;58957;37.742;-0.742;2023-04-25T05:50:00;12.75;;;7.30;;
71211;SDS011;58957;37.742;-0.742;2023-04-25T05:52:27;18.77;;;8.93;;
71211;SDS011;58957;37.742;-0.742;2023-04-25T05:54:55;15.25;;;7.45;;
71211;SDS011;58957;37.742;-0.742;2023-04-25T05:57:23;19.92;;;8.35;;
71211;SDS011;58957;37.742;-0.742;2023-04-25T05:59:52;14.43;;;7.90;;
71211;SDS011;58957;37.742;-0.742;2023-04-25T06:02:20;13.63;;;7.20;;
71211;SDS011;58957;37.742;-0.742;2023-04-25T06:04:47;21.92;;;7.57;;
71211;SDS011;58957;37.742;-0.742;2023-04-25T06:07:16;13.57;;;7.13;;
71211;SDS011;58957;37.742;-0.742;2023-04-25T06:09:43;15.90;;;8.02;;
71211;SDS011;58957;37.742;-0.742;2023-04-25T06:12:10;16.92;;;7.38;;
71211;SDS011;58957;37.742;-0.742;2023-04-25T06:14:40;15.85;;;7.50;;
71211;SDS011;58957;37.742;-0.742;2023-04-25T06:17:07;15.68;;;7.65;;
71211;SDS011;58957;37.742;-0.742;2023-04-25T06:19:34;17.05;;;7.72;;
71211;SDS011;58957;37.742;-0.742;2023-04-25T06:22:02;18.40;;;8.05;;
71211;SDS011;58957;37.742;-0.742;2023-04-25T06:24:29;16.50;;;7.47;;
71211;SDS011;58957;37.742;-0.742;2023-04-25T06:26:56;13.60;;;7.22;;
71211;SDS011;58957;37.742;-0.742;2023-04-25T06:29:25;14.35;;;7.53;;
71211;SDS011;58957;37.742;-0.742;2023-04-25T06:31:54;25.80;;;8.77;;
71211;SDS011;58957;37.742;-0.742;2023-04-25T06:34:22;14.25;;;8.55;;
71211;SDS011;58957;37.742;-0.742;2023-04-25T06:36:49;20.92;;;8.40;;
71211;SDS011;58957;37.742;-0.742;2023-04-25T06:39:16;24.50;;;9.77;;
71211;SDS011;58957;37.742;-0.742;2023-04-25T06:41:45;19.95;;;9.32;;
71211;SDS011;58957;37.742;-0.742;2023-04-25T06:44:13;17.98;;;9.32;;
71211;SDS011;58957;37.742;-0.742;2023-04-25T06:46:41;22.35;;;9.60;;
71211;SDS011;58957;37.742;-0.742;2023-04-25T06:49:09;15.90;;;8.63;;
71211;SDS011;58957;37.742;-0.742;2023-04-25T06:51:37;20.98;;;9.25;;
71211;SDS011;58957;37.742;-0.742;2023-04-25T06:54:04;18.75;;;9.25;;
71211;SDS011;58957;37.742;-0.742;2023-04-25T06:56:31;21.63;;;9.32;;
71211;SDS011;58957;37.742;-0.742;2023-04-25T06:58:58;16.88;;;8.93;;
71211;SDS011;58957;37.742;-0.742;2023-04-25T07:01:25;20.95;;;8.70;;
71211;SDS011;58957;37.742;-0.742;2023-04-25T07:03:53;20.58;;;8.95;;
71211;SDS011;58957;37.742;-0.742;2023-04-25T07:06:22;17.08;;;8.55;;
71211;SDS011;58957;37.742;-0.742;2023-04-25T07:08:50;25.75;;;10.07;;
71211;SDS011;58957;37.742;-0.742;2023-04-25T07:11:18;16.40;;;8.65;;
71211;SDS011;58957;37.742;-0.742;2023-04-25T07:13:45;18.73;;;9.70;;
71211;SDS011;58957;37.742;-0.742;2023-04-25T07:16:12;21.83;;;10.30;;
71211;SDS011;58957;37.742;-0.742;2023-04-25T07:18:39;17.85;;;9.50;;
71211;SDS011;58957;37.742;-0.742;2023-04-25T07:21:07;20.48;;;8.82;;
71211;SDS011;58957;37.742;-0.742;2023-04-25T07:23:35;20.85;;;9.68;;
71211;SDS011;58957;37.742;-0.742;2023-04-25T07:26:02;17.25;;;10.38;;
71211;SDS011;58957;37.742;-0.742;2023-04-25T07:28:29;18.55;;;10.45;;
71211;SDS011;58957;37.742;-0.742;2023-04-25T07:30:56;17.40;;;9.52;;
71211;SDS011;58957;37.742;-0.742;2023-04-25T07:33:24;14.95;;;9.05;;
71211;SDS011;58957;37.742;-0.742;2023-04-25T07:35:51;18.23;;;8.90;;
71211;SDS011;58957;37.742;-0.742;2023-04-25T07:38:19;17.75;;;8.82;;
71211;SDS011;58957;37.742;-0.742;2023-04-25T07:40:48;21.25;;;9.50;;
71211;SDS011;58957;37.742;-0.742;2023-04-25T07:43:16;18.67;;;9.40;;
71211;SDS011;58957;37.742;-0.742;2023-04-25T07:45:43;15.63;;;8.27;;
71211;SDS011;58957;37.742;-0.742;2023-04-25T07:48:10;19.67;;;8.75;;
71211;SDS011;58957;37.742;-0.742;2023-04-25T07:50:38;14.10;;;8.57;;
71211;SDS011;58957;37.742;-0.742;2023-04-25T07:53:05;18.90;;;9.63;;
71211;SDS011;58957;37.742;-0.742;2023-04-25T07:55:32;18.33;;;9.93;;
71211;SDS011;58957;37.742;-0.742;2023-04-25T07:58:00;20.80;;;10.93;;
71211;SDS011;58957;37.742;-0.742;2023-04-25T08:00:28;16.25;;;11.05;;
71211;SDS011;58957;37.742;-0.742;2023-04-25T08:02:55;20.02;;;11.65;;
71211;SDS011;58957;37.742;-0.742;2023-04-25T08:05:22;19.35;;;10.70;;
71211;SDS011;58957;37.742;-0.742;2023-04-25T08:07:49;20.42;;;11.70;;
71211;SDS011;58957;37.742;-0.742;2023-04-25T08:10:16;21.13;;;9.15;;
71211;SDS011;58957;37.742;-0.742;2023-04-25T08:12:44;22.27;;;10.90;;
71211;SDS011;58957;37.742;-0.742;2023-04-25T08:15:12;16.60;;;9.20;;
71211;SDS011;58957;37.742;-0.742;2023-04-25T08:17:40;17.20;;;9.13;;
71211;SDS011;58957;37.742;-0.742;2023-04-25T08:20:09;18.25;;;9.15;;
71211;SDS011;58957;37.742;-0.742;2023-04-25T08:22:37;21.65;;;8.18;;
71211;SDS011;58957;37.742;-0.742;2023-04-25T08:25:04;15.55;;;8.30;;
71211;SDS011;58957;37.742;-0.742;2023-04-25T08:27:32;17.35;;;7.20;;
71211;SDS011;58957;37.742;-0.742;2023-04-25T08:30:00;14.73;;;7.82;;
71211;SDS011;58957;37.742;-0.742;2023-04-25T08:32:29;16.90;;;6.70;;
71211;SDS011;58957;37.742;-0.742;2023-04-25T08:34:56;16.50;;;8.10;;
71211;SDS011;58957;37.742;-0.742;2023-04-25T08:37:23;14.00;;;6.70;;
71211;SDS011;58957;37.742;-0.742;2023-04-25T08:39:51;16.08;;;7.50;;
71211;SDS011;58957;37.742;-0.742;2023-04-25T08:42:18;22.10;;;8.38;;
71211;SDS011;58957;37.742;-0.742;2023-04-25T08:44:48;14.90;;;6.85;;
71211;SDS011;58957;37.742;-0.742;2023-04-25T08:47:16;13.60;;;7.40;;
71211;SDS011;58957;37.742;-0.742;2023-04-25T08:49:48;18.00;;;6.97;;
71211;SDS011;58957;37.742;-0.742;2023-04-25T08:52:21;13.23;;;6.63;;
71211;SDS011;58957;37.742;-0.742;2023-04-25T08:54:49;14.23;;;6.93;;
71211;SDS011;58957;37.742;-0.742;2023-04-25T08:57:19;12.45;;;7.20;;
71211;SDS011;58957;37.742;-0.742;2023-04-25T08:59:47;14.93;;;7.38;;
71211;SDS011;58957;37.742;-0.742;2023-04-25T09:02:15;15.55;;;6.78;;
71211;SDS011;58957;37.742;-0.742;2023-04-25T09:04:45;14.25;;;6.40;;
71211;SDS011;58957;37.742;-0.742;2023-04-25T09:07:14;18.38;;;6.65;;
71211;SDS011;58957;37.742;-0.742;2023-04-25T09:09:43;15.25;;;6.35;;
71211;SDS011;58957;37.742;-0.742;2023-04-25T09:12:10;12.00;;;5.90;;
71211;SDS011;58957;37.742;-0.742;2023-04-25T09:14:38;12.70;;;5.43;;
71211;SDS011;58957;37.742;-0.742;2023-04-25T09:17:07;12.57;;;5.53;;
71211;SDS011;58957;37.742;-0.742;2023-04-25T09:19:35;11.63;;;4.95;;
71211;SDS011;58957;37.742;-0.742;2023-04-25T09:22:05;12.07;;;4.97;;
71211;SDS011;58957;37.742;-0.742;2023-04-25T09:24:35;10.75;;;5.15;;
71211;SDS011;58957;37.742;-0.742;2023-04-25T09:27:04;12.80;;;5.35;;
71211;SDS011;58957;37.742;-0.742;2023-04-25T09:29:32;15.32;;;4.90;;
71211;SDS011;58957;37.742;-0.742;2023-04-25T09:32:13;13.48;;;5.00;;
71211;SDS011;58957;37.742;-0.742;2023-04-25T09:34:43;11.27;;;4.78;;
71211;SDS011;58957;37.742;-0.742;2023-04-25T09:37:16;14.05;;;4.32;;
71211;SDS011;58957;37.742;-0.742;2023-04-25T09:39:47;12.30;;;4.85;;
71211;SDS011;58957;37.742;-0.742;2023-04-25T09:42:15;8.63;;;4.35;;
71211;SDS011;58957;37.742;-0.742;2023-04-25T09:44:44;14.98;;;4.93;;
71211;SDS011;58957;37.742;-0.742;2023-04-25T09:47:13;6.53;;;3.72;;
71211;SDS011;58957;37.742;-0.742;2023-04-25T09:49:43;9.50;;;4.72;;
71211;SDS011;58957;37.742;-0.742;2023-04-25T09:52:13;9.25;;;4.10;;
71211;SDS011;58957;37.742;-0.742;2023-04-25T09:54:42;8.13;;;3.97;;
71211;SDS011;58957;37.742;-0.742;2023-04-25T09:57:12;11.55;;;5.00;;
71211;SDS011;58957;37.742;-0.742;2023-04-25T09:59:43;6.53;;;3.72;;
71211;SDS011;58957;37.742;-0.742;2023-04-25T10:02:11;10.93;;;4.00;;
71211;SDS011;58957;37.742;-0.742;2023-04-25T10:04:40;11.98;;;4.22;;
71211;SDS011;58957;37.742;-0.742;2023-04-25T10:07:08;8.05;;;4.35;;
71211;SDS011;58957;37.742;-0.742;2023-04-25T10:09:36;9.13;;;4.03;;
71211;SDS011;58957;37.742;-0.742;2023-04-25T10:12:07;7.45;;;3.35;;
71211;SDS011;58957;37.742;-0.742;2023-04-25T10:14:36;8.57;;;4.03;;
71211;SDS011;58957;37.742;-0.742;2023-04-25T10:17:03;10.25;;;3.83;;
71211;SDS011;58957;37.742;-0.742;2023-04-25T10:19:30;5.97;;;3.45;;
71211;SDS011;58957;37.742;-0.742;2023-04-25T10:22:02;5.78;;;3.17;;
71211;SDS011;58957;37.742;-0.742;2023-04-25T10:24:33;6.55;;;3.45;;
71211;SDS011;58957;37.742;-0.742;2023-04-25T10:27:02;5.90;;;2.70;;
71211;SDS011;58957;37.742;-0.742;2023-04-25T10:29:30;5.85;;;3.00;;
71211;SDS011;58957;37.742;-0.742;2023-04-25T10:31:59;5.15;;;2.60;;
71211;SDS011;58957;37.742;-0.742;2023-04-25T10:34:37;6.22;;;2.80;;
71211;SDS011;58957;37.742;-0.742;2023-04-25T10:37:08;7.80;;;2.80;;
71211;SDS011;58957;37.742;-0.742;2023-04-25T10:39:37;6.63;;;2.60;;
71211;SDS011;58957;37.742;-0.742;2023-04-25T10:42:05;6.85;;;2.75;;
71211;SDS011;58957;37.742;-0.742;2023-04-25T10:44:32;4.95;;;2.60;;
71211;SDS011;58957;37.742;-0.742;2023-04-25T10:47:02;8.35;;;2.83;;
71211;SDS011;58957;37.742;-0.742;2023-04-25T10:49:31;5.20;;;2.55;;
71211;SDS011;58957;37.742;-0.742;2023-04-25T10:52:17;4.10;;;2.85;;
71211;SDS011;58957;37.742;-0.742;2023-04-25T10:54:48;5.40;;;2.72;;
71211;SDS011;58957;37.742;-0.742;2023-04-25T10:57:30;7.93;;;3.30;;
71211;SDS011;58957;37.742;-0.742;2023-04-25T11:00:01;10.43;;;3.00;;
71211;SDS011;58957;37.742;-0.742;2023-04-25T11:02:38;8.40;;;2.60;;
71211;SDS011;58957;37.742;-0.742;2023-04-25T11:05:08;7.85;;;2.75;;
71211;SDS011;58957;37.742;-0.742;2023-04-25T11:07:43;4.43;;;2.25;;
71211;SDS011;58957;37.742;-0.742;2023-04-25T11:10:15;5.40;;;2.70;;
71211;SDS011;58957;37.742;-0.742;2023-04-25T11:12:44;6.03;;;3.42;;
71211;SDS011;58957;37.742;-0.742;2023-04-25T11:15:12;3.25;;;2.58;;
71211;SDS011;58957;37.742;-0.742;2023-04-25T11:17:41;6.15;;;2.85;;
71211;SDS011;58957;37.742;-0.742;2023-04-25T11:20:10;5.78;;;3.00;;
71211;SDS011;58957;37.742;-0.742;2023-04-25T11:22:39;8.77;;;3.50;;
71211;SDS011;58957;37.742;-0.742;2023-04-25T11:25:08;5.88;;;3.22;;
71211;SDS011;58957;37.742;-0.742;2023-04-25T11:27:48;7.78;;;2.92;;
71211;SDS011;58957;37.742;-0.742;2023-04-25T11:30:16;5.82;;;3.42;;
71211;SDS011;58957;37.742;-0.742;2023-04-25T11:32:45;8.90;;;3.60;;
71211;SDS011;58957;37.742;-0.742;2023-04-25T11:35:13;7.93;;;3.03;;
71211;SDS011;58957;37.742;-0.742;2023-04-25T11:37:41;7.00;;;2.65;;
71211;SDS011;58957;37.742;-0.742;2023-04-25T11:40:09;5.68;;;2.92;;
71211;SDS011;58957;37.742;-0.742;2023-04-25T11:42:37;3.67;;;3.00;;
71211;SDS011;58957;37.742;-0.742;2023-04-25T11:45:05;12.88;;;4.05;;
71211;SDS011;58957;37.742;-0.742;2023-04-25T11:47:34;5.43;;;2.70;;
71211;SDS011;58957;37.742;-0.742;2023-04-25T11:50:04;5.80;;;2.83;;
71211;SDS011;58957;37.742;-0.742;2023-04-25T11:52:36;6.65;;;2.50;;
71211;SDS011;58957;37.742;-0.742;2023-04-25T11:55:05;3.75;;;2.42;;
71211;SDS011;58957;37.742;-0.742;2023-04-25T11:57:33;14.30;;;3.00;;
71211;SDS011;58957;37.742;-0.742;2023-04-25T12:00:11;5.97;;;2.38;;
71211;SDS011;58957;37.742;-0.742;2023-04-25T12:02:43;7.95;;;2.28;;
71211;SDS011;58957;37.742;-0.742;2023-04-25T12:05:12;3.53;;;1.90;;
71211;SDS011;58957;37.742;-0.742;2023-04-25T12:07:41;4.88;;;2.65;;
71211;SDS011;58957;37.742;-0.742;2023-04-25T12:10:10;3.92;;;2.25;;
71211;SDS011;58957;37.742;-0.742;2023-04-25T12:12:41;9.00;;;2.63;;
71211;SDS011;58957;37.742;-0.742;2023-04-25T12:15:12;5.00;;;2.25;;
71211;SDS011;58957;37.742;-0.742;2023-04-25T12:17:44;5.90;;;2.10;;
71211;SDS011;58957;37.742;-0.742;2023-04-25T12:20:16;5.55;;;2.20;;
71211;SDS011;58957;37.742;-0.742;2023-04-25T12:22:45;5.20;;;2.03;;
71211;SDS011;58957;37.742;-0.742;2023-04-25T12:28:11;3.85;;;1.85;;
71211;SDS011;58957;37.742;-0.742;2023-04-25T12:30:58;6.63;;;2.10;;
71211;SDS011;58957;37.742;-0.742;2023-04-25T12:33:27;4.35;;;1.85;;
71211;SDS011;58957;37.742;-0.742;2023-04-25T12:35:57;4.47;;;2.22;;
71211;SDS011;58957;37.742;-0.742;2023-04-25T12:38:29;5.40;;;1.80;;
71211;SDS011;58957;37.742;-0.742;2023-04-25T12:40:59;4.95;;;1.50;;
71211;SDS011;58957;37.742;-0.742;2023-04-25T12:43:26;4.85;;;1.63;;
71211;SDS011;58957;37.742;-0.742;2023-04-25T12:45:54;6.55;;;1.98;;
71211;SDS011;58957;37.742;-0.742;2023-04-25T12:48:22;7.78;;;1.60;;
71211;SDS011;58957;37.742;-0.742;2023-04-25T12:50:50;5.70;;;1.83;;
71211;SDS011;58957;37.742;-0.742;2023-04-25T12:53:19;6.68;;;1.80;;
71211;SDS011;58957;37.742;-0.742;2023-04-25T12:55:48;7.93;;;2.20;;
71211;SDS011;58957;37.742;-0.742;2023-04-25T12:58:16;4.50;;;1.55;;
71211;SDS011;58957;37.742;-0.742;2023-04-25T13:00:44;6.55;;;1.98;;
71211;SDS011;58957;37.742;-0.742;2023-04-25T13:03:14;2.85;;;1.45;;
71211;SDS011;58957;37.742;-0.742;2023-04-25T13:05:41;6.38;;;1.50;;
71211;SDS011;58957;37.742;-0.742;2023-04-25T13:08:09;4.68;;;1.40;;
71211;SDS011;58957;37.742;-0.742;2023-04-25T13:10:38;7.13;;;1.65;;
71211;SDS011;58957;37.742;-0.742;2023-04-25T13:13:05;7.57;;;1.40;;
71211;SDS011;58957;37.742;-0.742;2023-04-25T13:15:33;6.38;;;1.73;;
71211;SDS011;58957;37.742;-0.742;2023-04-25T13:18:03;7.57;;;1.55;;
71211;SDS011;58957;37.742;-0.742;2023-04-25T13:20:30;7.95;;;1.27;;
71211;SDS011;58957;37.742;-0.742;2023-04-25T13:22:57;7.15;;;1.60;;
71211;SDS011;58957;37.742;-0.742;2023-04-25T13:25:25;9.48;;;1.40;;
71211;SDS011;58957;37.742;-0.742;2023-04-25T13:27:54;4.70;;;1.48;;
71211;SDS011;58957;37.742;-0.742;2023-04-25T13:30:21;9.45;;;1.95;;
71211;SDS011;58957;37.742;-0.742;2023-04-25T13:33:39;3.65;;;1.20;;
71211;SDS011;58957;37.742;-0.742;2023-04-25T13:36:07;5.32;;;1.40;;
71211;SDS011;58957;37.742;-0.742;2023-04-25T13:38:35;8.07;;;1.35;;
71211;SDS011;58957;37.742;-0.742;2023-04-25T13:41:03;7.40;;;1.88;;
71211;SDS011;58957;37.742;-0.742;2023-04-25T13:43:32;4.60;;;1.58;;
71211;SDS011;58957;37.742;-0.742;2023-04-25T13:46:00;2.95;;;1.58;;
71211;SDS011;58957;37.742;-0.742;2023-04-25T13:48:27;5.38;;;1.23;;
71211;SDS011;58957;37.742;-0.742;2023-04-25T13:50:55;8.70;;;1.50;;
71211;SDS011;58957;37.742;-0.742;2023-04-25T13:53:23;5.75;;;1.75;;
71211;SDS011;58957;37.742;-0.742;2023-04-25T13:55:50;4.20;;;1.52;;
71211;SDS011;58957;37.742;-0.742;2023-04-25T13:58:17;6.20;;;1.50;;
71211;SDS011;58957;37.742;-0.742;2023-04-25T14:00:45;9.65;;;1.65;;
71211;SDS011;58957;37.742;-0.742;2023-04-25T14:03:12;6.90;;;1.75;;
71211;SDS011;58957;37.742;-0.742;2023-04-25T14:05:39;5.80;;;1.35;;
71211;SDS011;58957;37.742;-0.742;2023-04-25T14:08:08;4.25;;;1.23;;
71211;SDS011;58957;37.742;-0.742;2023-04-25T14:10:36;4.70;;;1.27;;
71211;SDS011;58957;37.742;-0.742;2023-04-25T14:13:04;5.35;;;1.52;;
71211;SDS011;58957;37.742;-0.742;2023-04-25T14:15:32;5.70;;;1.38;;
71211;SDS011;58957;37.742;-0.742;2023-04-25T14:17:59;5.90;;;1.30;;
71211;SDS011;58957;37.742;-0.742;2023-04-25T14:20:27;3.05;;;1.10;;
71211;SDS011;58957;37.742;-0.742;2023-04-25T14:22:55;4.97;;;1.35;;
71211;SDS011;58957;37.742;-0.742;2023-04-25T14:25:24;5.88;;;1.70;;
71211;SDS011;58957;37.742;-0.742;2023-04-25T14:27:53;7.78;;;1.80;;
71211;SDS011;58957;37.742;-0.742;2023-04-25T14:30:20;4.75;;;1.30;;